createdAt,value
2019-05-14T04:00:11.290Z,1024.51
2019-05-14T04:14:11.149Z,1024.60
2019-05-14T04:17:15.413Z,1024.55
2019-05-14T04:49:55.295Z,1024.57
2019-05-14T05:00:55.236Z,1024.66
2019-05-14T05:07:55.141Z,1024.71
2019-05-14T05:08:55.101Z,1024.69
2019-05-14T05:09:55.082Z,1024.70
2019-05-14T05:10:55.078Z,1024.73
2019-05-14T05:11:55.057Z,1024.69
2019-05-14T05:13:55.030Z,1024.67
2019-05-14T05:17:55.015Z,1024.69
2019-05-14T05:20:54.953Z,1024.70
2019-05-14T05:21:54.938Z,1024.67
2019-05-14T05:31:19.565Z,1024.56
2019-05-14T05:33:19.545Z,1024.58
2019-05-14T05:34:19.533Z,1024.60
2019-05-14T05:35:19.520Z,1024.61
2019-05-14T05:40:19.860Z,1024.65
2019-05-14T05:46:19.498Z,1024.60
2019-05-14T05:49:19.357Z,1024.54
2019-05-14T05:50:19.493Z,1024.50
2019-05-14T05:52:19.328Z,1024.54
2019-05-14T05:54:19.308Z,1024.44
2019-05-14T05:55:19.293Z,1024.49
2019-05-14T05:56:19.290Z,1024.47
2019-05-14T05:58:19.748Z,1024.40
2019-05-14T05:59:19.261Z,1024.45
2019-05-14T06:00:19.254Z,1024.43
2019-05-14T06:01:19.792Z,1024.47
2019-05-14T06:02:19.234Z,1024.44
2019-05-14T06:03:21.005Z,1024.45
2019-05-14T06:04:19.197Z,1024.44
2019-05-14T06:05:19.182Z,1024.48
2019-05-14T06:06:19.547Z,1024.42
2019-05-14T06:07:19.153Z,1024.44
2019-05-14T06:08:19.182Z,1024.43
2019-05-14T06:09:19.160Z,1024.43
2019-05-14T06:10:20.235Z,1024.42
2019-05-14T06:11:19.636Z,1024.43
2019-05-14T06:12:19.228Z,1024.41
2019-05-14T06:13:19.558Z,1024.41
2019-05-14T06:14:19.117Z,1024.37
2019-05-14T06:15:19.316Z,1024.36
2019-05-14T06:16:19.094Z,1024.35
2019-05-14T06:17:19.417Z,1024.30
2019-05-14T06:18:21.985Z,1024.34
2019-05-14T06:19:19.046Z,1024.25
2019-05-14T06:20:19.122Z,1024.33
2019-05-14T06:21:19.539Z,1024.26
2019-05-14T06:22:19.127Z,1024.27
2019-05-14T06:23:19.083Z,1024.25
2019-05-14T06:24:19.444Z,1024.28
2019-05-14T06:25:20.961Z,1024.23
2019-05-14T06:26:19.549Z,1024.26
2019-05-14T06:27:18.975Z,1024.25
2019-05-14T06:28:20.948Z,1024.20
2019-05-14T06:29:18.921Z,1024.17
2019-05-14T06:30:18.893Z,1024.19
2019-05-14T06:31:19.439Z,1024.19
2019-05-14T06:32:18.994Z,1024.19
2019-05-14T06:33:19.623Z,1024.19
2019-05-14T06:34:18.911Z,1024.20
2019-05-14T06:35:19.381Z,1024.15
2019-05-14T06:36:19.694Z,1024.20
2019-05-14T06:37:19.339Z,1024.21
2019-05-14T06:38:18.802Z,1024.22
2019-05-14T06:39:18.811Z,1024.23
2019-05-14T06:40:19.396Z,1024.20
2019-05-14T06:41:19.291Z,1024.17
2019-05-14T06:42:19.416Z,1024.19
2019-05-14T06:43:19.074Z,1024.20
2019-05-14T06:44:18.920Z,1024.23
2019-05-14T06:45:18.881Z,1024.20
2019-05-14T06:46:19.557Z,1024.21
2019-05-14T06:47:18.706Z,1024.18
2019-05-14T06:48:30.033Z,1024.23
2019-05-14T06:49:40.258Z,1024.18
2019-05-14T06:50:40.249Z,1024.14
2019-05-14T06:51:40.237Z,1024.13
2019-05-14T06:52:40.261Z,1024.09
2019-05-14T06:53:40.209Z,1024.14
2019-05-14T06:54:40.197Z,1024.13
2019-05-14T06:55:40.184Z,1024.15
2019-05-14T06:56:40.196Z,1024.14
2019-05-14T06:57:40.192Z,1024.18
2019-05-14T06:58:40.164Z,1024.15
2019-05-14T06:59:40.136Z,1024.17
2019-05-14T07:00:40.143Z,1024.17
2019-05-14T07:01:40.124Z,1024.20
2019-05-14T07:02:43.461Z,1024.19
2019-05-14T07:03:40.094Z,1024.21
2019-05-14T07:04:40.076Z,1024.20
2019-05-14T07:05:40.085Z,1024.17
2019-05-14T07:06:40.061Z,1024.19
2019-05-14T07:07:40.674Z,1024.20
2019-05-14T07:08:40.042Z,1024.25
2019-05-14T07:09:40.041Z,1024.23
2019-05-14T07:10:40.025Z,1024.25
2019-05-14T07:11:40.012Z,1024.27
2019-05-14T07:12:39.987Z,1024.24
2019-05-14T07:13:39.992Z,1024.26
2019-05-14T07:14:39.976Z,1024.21
2019-05-14T07:15:39.953Z,1024.18
2019-05-14T07:16:39.962Z,1024.17
2019-05-14T07:17:39.948Z,1024.20
2019-05-14T07:18:52.835Z,1024.20
2019-05-14T07:20:02.440Z,1024.15
2019-05-14T07:21:02.434Z,1024.17
2019-05-14T07:22:02.417Z,1024.16
2019-05-14T07:23:02.423Z,1024.12
2019-05-14T07:24:02.395Z,1024.15
2019-05-14T07:25:02.419Z,1024.09
2019-05-14T07:26:02.397Z,1024.08
2019-05-14T07:27:02.376Z,1024.04
2019-05-14T07:28:02.346Z,1024.06
2019-05-14T07:29:02.334Z,1024.05
2019-05-14T07:30:02.335Z,1024.03
2019-05-14T07:31:02.321Z,1024.05
2019-05-14T07:32:02.312Z,1024.05
2019-05-14T07:33:02.329Z,1024.06
2019-05-14T07:34:02.279Z,1024.02
2019-05-14T07:35:02.326Z,1024.03
2019-05-14T07:36:02.297Z,1024.04
2019-05-14T07:37:02.283Z,1023.98
2019-05-14T07:38:02.233Z,1023.97
2019-05-14T07:39:02.272Z,1023.94
2019-05-14T07:40:02.229Z,1023.92
2019-05-14T07:41:02.193Z,1023.91
2019-05-14T07:42:02.209Z,1023.98
2019-05-14T07:43:02.195Z,1023.98
2019-05-14T07:44:02.181Z,1023.93
2019-05-14T07:45:04.199Z,1023.91
2019-05-14T07:46:03.985Z,1023.92
2019-05-14T07:47:02.128Z,1023.89
2019-05-14T07:48:02.128Z,1023.83
2019-05-14T07:49:08.060Z,1023.87
2019-05-14T07:50:24.431Z,1023.85
2019-05-14T07:51:24.421Z,1023.83
2019-05-14T07:52:24.401Z,1023.81
2019-05-14T07:53:36.161Z,1023.79
2019-05-14T07:54:48.160Z,1023.82
2019-05-14T07:55:49.073Z,1023.81
2019-05-14T07:56:48.769Z,1023.81
2019-05-14T07:57:48.058Z,1023.75
2019-05-14T07:58:48.864Z,1023.77
2019-05-14T07:59:48.389Z,1023.71
2019-05-14T08:00:48.978Z,1023.75
2019-05-14T08:01:48.937Z,1023.74
2019-05-14T08:02:48.919Z,1023.79
2019-05-14T08:03:48.522Z,1023.82
2019-05-14T08:04:48.536Z,1023.76
2019-05-14T08:05:48.292Z,1023.76
2019-05-14T08:06:48.598Z,1023.75
2019-05-14T08:07:48.064Z,1023.70
2019-05-14T08:08:49.017Z,1023.74
2019-05-14T08:09:49.275Z,1023.66
2019-05-14T08:10:48.472Z,1023.61
2019-05-14T08:11:48.071Z,1023.65
2019-05-14T08:12:48.344Z,1023.65
2019-05-14T08:13:46.221Z,1023.69
2019-05-14T08:15:08.622Z,1023.64
2019-05-14T08:16:08.937Z,1023.64
2019-05-14T08:17:08.722Z,1023.63
2019-05-14T08:18:08.404Z,1023.64
2019-05-14T08:19:20.917Z,1023.62
2019-05-14T08:20:31.600Z,1023.58
2019-05-14T08:21:31.551Z,1023.57
2019-05-14T08:22:31.585Z,1023.56
2019-05-14T08:23:31.528Z,1023.47
2019-05-14T08:24:31.527Z,1023.51
2019-05-14T08:25:31.516Z,1023.51
2019-05-14T08:26:31.521Z,1023.55
2019-05-14T08:27:31.489Z,1023.52
2019-05-14T08:28:31.497Z,1023.53
2019-05-14T08:29:31.466Z,1023.48
2019-05-14T08:30:31.475Z,1023.48
2019-05-14T08:31:31.447Z,1023.50
2019-05-14T08:32:31.424Z,1023.47
2019-05-14T08:33:31.429Z,1023.43
2019-05-14T08:34:32.360Z,1023.43
2019-05-14T08:35:34.035Z,1023.49
2019-05-14T08:36:31.380Z,1023.42
2019-05-14T08:37:31.381Z,1023.42
2019-05-14T08:38:31.353Z,1023.39
2019-05-14T08:39:31.359Z,1023.42
2019-05-14T08:40:31.333Z,1023.42
2019-05-14T08:41:31.343Z,1023.39
2019-05-14T08:42:34.085Z,1023.39
2019-05-14T08:43:31.307Z,1023.39
2019-05-14T08:44:31.303Z,1023.42
2019-05-14T08:45:31.276Z,1023.39
2019-05-14T08:46:31.270Z,1023.41
2019-05-14T08:47:31.249Z,1023.39
2019-05-14T08:48:31.268Z,1023.42
2019-05-14T08:49:42.447Z,1023.47
2019-05-14T08:50:53.547Z,1023.39
2019-05-14T08:51:53.541Z,1023.47
2019-05-14T08:52:53.529Z,1023.40
2019-05-14T08:53:53.522Z,1023.39
2019-05-14T08:55:05.434Z,1023.38
2019-05-14T08:56:15.557Z,1023.34
2019-05-14T08:57:15.617Z,1023.34
2019-05-14T08:58:15.549Z,1023.33
2019-05-14T08:59:19.435Z,1023.30
2019-05-14T09:00:15.476Z,1023.34
2019-05-14T09:01:19.503Z,1023.32
2019-05-14T09:02:15.450Z,1023.37
2019-05-14T09:03:15.455Z,1023.35
2019-05-14T09:04:15.443Z,1023.32
2019-05-14T09:05:15.421Z,1023.34
2019-05-14T09:06:15.415Z,1023.27
2019-05-14T09:07:15.408Z,1023.33
2019-05-14T09:08:15.406Z,1023.32
2019-05-14T09:09:15.375Z,1023.30
2019-05-14T09:10:15.369Z,1023.30
2019-05-14T09:11:15.376Z,1023.29
2019-05-14T09:12:15.407Z,1023.30
2019-05-14T09:13:15.330Z,1023.27
2019-05-14T09:14:15.369Z,1023.21
2019-05-14T09:31:09.376Z,1023.08
2019-05-14T09:32:09.781Z,1023.06
2019-05-14T09:33:09.335Z,1023.05
2019-05-14T09:34:09.393Z,1023.03
2019-05-14T09:35:09.923Z,1022.96
2019-05-14T09:36:18.009Z,1023.00
2019-05-14T09:37:31.290Z,1022.98
2019-05-14T09:38:31.296Z,1022.98
2019-05-14T09:39:31.301Z,1023.02
2019-05-14T09:40:31.327Z,1022.95
2019-05-14T09:41:34.259Z,1022.94
2019-05-14T09:42:31.274Z,1022.89
2019-05-14T09:43:31.285Z,1022.85
2019-05-14T09:44:31.334Z,1022.81
2019-05-14T09:45:31.291Z,1022.80
2019-05-14T09:46:31.206Z,1022.83
2019-05-14T09:47:31.183Z,1022.75
2019-05-14T09:48:31.178Z,1022.73
2019-05-14T09:49:31.160Z,1022.75
2019-05-14T09:50:31.173Z,1022.71
2019-05-14T09:51:31.142Z,1022.69
2019-05-14T09:52:31.126Z,1022.66
2019-05-14T09:53:31.121Z,1022.64
2019-05-14T09:54:31.136Z,1022.67
2019-05-14T09:55:31.090Z,1022.66
2019-05-14T09:56:31.157Z,1022.64
2019-05-14T09:57:31.103Z,1022.63
2019-05-14T09:58:31.066Z,1022.52
2019-05-14T09:59:31.085Z,1022.50
2019-05-14T10:00:31.417Z,1022.54
2019-05-14T10:01:31.060Z,1022.42
2019-05-14T10:02:31.082Z,1022.46
2019-05-14T10:03:31.068Z,1022.52
2019-05-14T10:04:31.057Z,1022.48
2019-05-14T10:05:31.045Z,1022.44
2019-05-14T10:06:31.222Z,1022.47
2019-05-14T10:07:31.015Z,1022.50
2019-05-14T10:08:32.455Z,1022.47
2019-05-14T10:09:39.364Z,1022.47
2019-05-14T10:11:38.880Z,1022.45
2019-05-14T10:12:51.196Z,1022.49
2019-05-14T10:14:01.620Z,1022.49
2019-05-14T10:15:01.375Z,1022.48
2019-05-14T10:16:01.357Z,1022.43
2019-05-14T10:17:04.472Z,1022.51
2019-05-14T10:18:01.436Z,1022.55
2019-05-14T10:19:01.346Z,1022.52
2019-05-14T10:20:01.364Z,1022.54
2019-05-14T10:21:01.324Z,1022.50
2019-05-14T10:22:01.527Z,1022.47
2019-05-14T10:23:01.273Z,1022.49
2019-05-14T10:24:01.278Z,1022.53
2019-05-14T10:25:01.423Z,1022.52
2019-05-14T10:26:01.233Z,1022.58
2019-05-14T10:27:01.409Z,1022.49
2019-05-14T10:28:01.240Z,1022.51
2019-05-14T10:29:25.362Z,1022.47
2019-05-14T10:30:37.530Z,1022.45
2019-05-14T10:31:39.787Z,1022.52
2019-05-14T10:32:41.357Z,1022.47
2019-05-14T10:33:40.515Z,1022.56
2019-05-14T10:34:38.710Z,1022.50
2019-05-14T10:35:39.143Z,1022.43
2019-05-14T10:36:37.472Z,1022.34
2019-05-14T10:37:39.939Z,1022.34
2019-05-14T10:38:40.446Z,1022.35
2019-05-14T10:39:39.161Z,1022.29
2019-05-14T10:40:38.426Z,1022.33
2019-05-14T10:41:38.464Z,1022.30
2019-05-14T10:42:40.367Z,1022.30
2019-05-14T10:43:39.124Z,1022.28
2019-05-14T10:44:39.045Z,1022.28
2019-05-14T10:45:40.403Z,1022.20
2019-05-14T10:46:38.486Z,1022.21
2019-05-14T10:47:38.857Z,1022.22
2019-05-14T10:48:39.587Z,1022.21
2019-05-14T10:49:38.644Z,1022.30
2019-05-14T10:50:55.206Z,1022.28
2019-05-14T10:52:11.738Z,1022.29
2019-05-14T10:53:11.725Z,1022.25
2019-05-14T10:54:24.354Z,1022.22
2019-05-14T10:55:33.268Z,1022.28
2019-05-14T10:56:33.277Z,1022.29
2019-05-14T10:57:33.255Z,1022.23
2019-05-14T10:58:33.268Z,1022.32
2019-05-14T10:59:34.243Z,1022.24
2019-05-14T11:00:33.214Z,1022.28
2019-05-14T11:01:33.213Z,1022.23
2019-05-14T11:02:33.230Z,1022.27
2019-05-14T11:03:33.180Z,1022.26
2019-05-14T11:04:34.593Z,1022.26
2019-05-14T11:05:33.164Z,1022.21
2019-05-14T11:06:33.161Z,1022.21
2019-05-14T11:07:33.125Z,1022.23
2019-05-14T11:08:33.125Z,1022.21
2019-05-14T11:09:33.103Z,1022.21
2019-05-14T11:10:33.130Z,1022.19
2019-05-14T11:11:33.093Z,1022.19
2019-05-14T11:12:35.118Z,1022.21
2019-05-14T11:13:33.065Z,1022.16
2019-05-14T11:14:33.078Z,1022.15
2019-05-14T11:15:33.042Z,1022.15
2019-05-14T11:16:33.046Z,1022.13
2019-05-14T11:17:33.059Z,1022.10
2019-05-14T11:18:33.031Z,1022.02
2019-05-14T11:19:32.993Z,1022.05
2019-05-14T11:20:33.011Z,1021.96
2019-05-14T11:21:33.004Z,1021.98
2019-05-14T11:22:32.978Z,1021.89
2019-05-14T11:23:32.948Z,1021.86
2019-05-14T11:24:32.936Z,1021.84
2019-05-14T11:25:32.927Z,1021.79
2019-05-14T11:26:32.917Z,1021.82
2019-05-14T11:27:34.113Z,1021.68
2019-05-14T11:28:32.891Z,1021.66
2019-05-14T11:29:32.886Z,1021.65
2019-05-14T11:30:32.883Z,1021.64
2019-05-14T11:31:34.371Z,1021.58
2019-05-14T11:32:32.849Z,1021.63
2019-05-14T11:33:32.845Z,1021.60
2019-05-14T11:34:32.828Z,1021.58
2019-05-14T11:35:32.834Z,1021.56
2019-05-14T11:36:38.894Z,1021.54
2019-05-14T11:37:54.496Z,1021.50
2019-05-14T11:38:54.476Z,1021.43
2019-05-14T11:39:54.443Z,1021.45
2019-05-14T11:40:54.438Z,1021.44
2019-05-14T11:41:54.454Z,1021.37
2019-05-14T11:42:54.431Z,1021.34
2019-05-14T11:43:54.442Z,1021.42
2019-05-14T11:44:54.390Z,1021.42
2019-05-14T11:45:58.985Z,1021.41
2019-05-14T11:46:58.157Z,1021.40
2019-05-14T11:48:19.391Z,1021.41
2019-05-14T11:49:19.423Z,1021.35
2019-05-14T11:50:19.333Z,1021.30
2019-05-14T11:51:19.259Z,1021.46
2019-05-14T11:52:39.361Z,1021.35
2019-05-14T11:53:39.346Z,1021.35
2019-05-14T11:54:40.982Z,1021.35
2019-05-14T11:55:39.335Z,1021.32
2019-05-14T11:56:41.766Z,1021.35
2019-05-14T11:57:39.300Z,1021.35
2019-05-14T11:58:39.301Z,1021.31
2019-05-14T11:59:39.282Z,1021.27
2019-05-14T12:00:39.267Z,1021.24
2019-05-14T12:01:39.427Z,1021.18
2019-05-14T12:02:39.236Z,1021.18
2019-05-14T12:03:39.675Z,1021.16
2019-05-14T12:04:39.325Z,1021.12
2019-05-14T12:05:39.301Z,1021.06
2019-05-14T12:06:39.419Z,1021.09
2019-05-14T12:07:39.198Z,1021.05
2019-05-14T12:08:41.818Z,1021.07
2019-05-14T12:09:39.441Z,1021.09
2019-05-14T12:10:39.147Z,1021.13
2019-05-14T12:11:39.135Z,1021.10
2019-05-14T12:12:39.118Z,1021.01
2019-05-14T12:13:39.552Z,1020.97
2019-05-14T12:14:39.114Z,1020.98
2019-05-14T12:15:39.091Z,1020.97
2019-05-14T12:16:40.210Z,1021.03
2019-05-14T12:17:39.656Z,1020.98
2019-05-14T12:18:41.832Z,1020.96
2019-05-14T12:19:43.257Z,1020.93
2019-05-14T12:20:39.763Z,1020.92
2019-05-14T12:21:39.683Z,1020.93
2019-05-14T12:22:39.538Z,1020.88
2019-05-14T12:23:39.458Z,1020.93
2019-05-14T12:24:39.013Z,1020.91
2019-05-14T12:25:38.999Z,1020.83
2019-05-14T12:26:38.976Z,1020.81
2019-05-14T12:27:39.052Z,1020.83
2019-05-14T12:28:39.005Z,1020.77
2019-05-14T12:29:39.997Z,1020.78
2019-05-14T12:30:39.635Z,1020.75
2019-05-14T12:31:38.921Z,1020.68
2019-05-14T12:32:39.839Z,1020.67
2019-05-14T12:33:39.759Z,1020.62
2019-05-14T12:34:39.016Z,1020.62
2019-05-14T12:35:40.212Z,1020.65
2019-05-14T12:36:39.058Z,1020.67
2019-05-14T12:37:39.191Z,1020.64
2019-05-14T12:38:38.839Z,1020.60
2019-05-14T12:39:38.814Z,1020.56
2019-05-14T12:40:38.807Z,1020.61
2019-05-14T12:41:38.791Z,1020.59
2019-05-14T12:42:39.453Z,1020.53
2019-05-14T12:43:39.735Z,1020.53
2019-05-14T12:44:40.885Z,1020.54
2019-05-14T12:45:39.464Z,1020.50
2019-05-14T12:46:38.742Z,1020.48
2019-05-14T12:47:38.728Z,1020.40
2019-05-14T12:48:39.182Z,1020.37
2019-05-14T12:49:38.982Z,1020.32
2019-05-14T12:50:39.427Z,1020.25
2019-05-14T12:51:42.439Z,1020.29
2019-05-14T12:52:39.054Z,1020.33
2019-05-14T12:53:39.471Z,1020.37
2019-05-14T12:54:39.051Z,1020.36
2019-05-14T12:55:40.154Z,1020.31
2019-05-14T12:56:39.145Z,1020.29
2019-05-14T12:57:39.376Z,1020.34
2019-05-14T12:58:44.924Z,1020.40
2019-05-14T13:00:00.472Z,1020.38
2019-05-14T13:01:00.463Z,1020.35
2019-05-14T13:02:00.439Z,1020.32
2019-05-14T13:03:00.436Z,1020.27
2019-05-14T13:04:00.415Z,1020.30
2019-05-14T13:05:00.419Z,1020.25
2019-05-14T13:06:00.615Z,1020.24
2019-05-14T13:07:01.194Z,1020.29
2019-05-14T13:08:00.404Z,1020.30
2019-05-14T13:09:00.373Z,1020.32
2019-05-14T13:10:00.345Z,1020.30
2019-05-14T13:11:00.764Z,1020.27
2019-05-14T13:12:00.342Z,1020.23
2019-05-14T13:13:00.330Z,1020.18
2019-05-14T13:14:00.315Z,1020.25
2019-05-14T13:15:00.305Z,1020.18
2019-05-14T13:16:00.287Z,1020.24
2019-05-14T13:17:00.609Z,1020.20
2019-05-14T13:18:00.298Z,1020.19
2019-05-14T13:19:00.274Z,1020.22
2019-05-14T13:20:00.236Z,1020.16
2019-05-14T13:21:00.242Z,1020.16
2019-05-14T13:22:12.967Z,1020.19
2019-05-14T13:23:22.376Z,1020.11
2019-05-14T13:24:22.388Z,1020.10
2019-05-14T13:25:22.386Z,1020.09
2019-05-14T13:26:22.358Z,1020.05
2019-05-14T13:27:22.332Z,1020.01
2019-05-14T13:28:22.326Z,1019.98
2019-05-14T13:29:22.314Z,1019.93
2019-05-14T13:30:22.317Z,1019.94
2019-05-14T13:31:22.293Z,1019.89
2019-05-14T13:32:22.280Z,1019.95
2019-05-14T13:33:22.287Z,1019.96
2019-05-14T13:34:22.275Z,1019.98
2019-05-14T13:35:22.241Z,1019.97
2019-05-14T13:36:22.236Z,1019.87
2019-05-14T13:37:22.233Z,1019.90
2019-05-14T13:38:22.210Z,1019.89
2019-05-14T13:39:22.201Z,1019.95
2019-05-14T13:40:22.182Z,1019.88
2019-05-14T13:41:22.185Z,1019.83
2019-05-14T13:42:22.162Z,1019.87
2019-05-14T13:43:22.160Z,1019.87
2019-05-14T13:44:25.117Z,1019.93
2019-05-14T13:45:22.151Z,1019.91
2019-05-14T13:46:22.130Z,1019.91
2019-05-14T13:47:22.128Z,1019.95
2019-05-14T13:48:22.129Z,1019.97
2019-05-14T13:49:22.093Z,1019.92
2019-05-14T13:50:23.485Z,1019.87
2019-05-14T13:51:22.089Z,1019.92
2019-05-14T13:52:22.084Z,1019.87
2019-05-14T13:53:22.085Z,1019.83
2019-05-14T13:54:22.060Z,1019.84
2019-05-14T13:55:22.034Z,1019.86
2019-05-14T13:56:22.011Z,1019.85
2019-05-14T13:57:21.998Z,1019.80
2019-05-14T13:58:22.004Z,1019.86
2019-05-14T13:59:21.980Z,1019.78
2019-05-14T14:00:21.975Z,1019.80
2019-05-14T14:01:21.963Z,1019.75
2019-05-14T14:02:21.948Z,1019.73
2019-05-14T14:03:21.933Z,1019.72
2019-05-14T14:04:21.944Z,1019.72
2019-05-14T14:05:21.907Z,1019.66
2019-05-14T14:06:21.949Z,1019.62
2019-05-14T14:07:21.903Z,1019.61
2019-05-14T14:08:21.911Z,1019.60
2019-05-14T14:09:21.862Z,1019.54
2019-05-14T14:10:21.863Z,1019.54
2019-05-14T14:11:21.858Z,1019.50
2019-05-14T14:12:25.167Z,1019.55
2019-05-14T14:13:21.826Z,1019.53
2019-05-14T14:14:21.820Z,1019.57
2019-05-14T14:15:21.805Z,1019.54
2019-05-14T14:16:21.783Z,1019.52
2019-05-14T14:17:21.782Z,1019.48
2019-05-14T14:18:21.775Z,1019.52
2019-05-14T14:19:21.772Z,1019.44
2019-05-14T14:20:21.764Z,1019.46
2019-05-14T14:21:21.738Z,1019.46
2019-05-14T14:22:21.723Z,1019.50
2019-05-14T14:23:26.901Z,1019.47
2019-05-14T14:24:43.377Z,1019.35
2019-05-14T14:25:43.379Z,1019.39
2019-05-14T14:26:43.353Z,1019.36
2019-05-14T14:27:43.374Z,1019.34
2019-05-14T14:28:43.379Z,1019.32
2019-05-14T14:29:43.313Z,1019.32
2019-05-14T14:30:43.308Z,1019.33
2019-05-14T14:31:43.289Z,1019.27
2019-05-14T14:32:43.285Z,1019.29
2019-05-14T14:33:43.274Z,1019.32
2019-05-14T14:34:43.267Z,1019.27
2019-05-14T14:35:43.246Z,1019.25
2019-05-14T14:36:43.239Z,1019.23
2019-05-14T14:37:43.226Z,1019.16
2019-05-14T14:38:43.242Z,1019.20
2019-05-14T14:39:43.199Z,1019.17
2019-05-14T14:40:43.214Z,1019.21
2019-05-14T14:41:43.193Z,1019.17
2019-05-14T14:42:43.200Z,1019.19
2019-05-14T14:43:44.501Z,1019.12
2019-05-14T14:44:43.140Z,1019.16
2019-05-14T14:45:45.575Z,1019.09
2019-05-14T14:46:43.125Z,1019.18
2019-05-14T14:47:43.156Z,1019.11
2019-05-14T14:48:43.109Z,1019.14
2019-05-14T14:49:44.091Z,1019.14
2019-05-14T14:50:43.121Z,1019.12
2019-05-14T14:51:45.067Z,1019.08
2019-05-14T14:52:43.057Z,1019.10
2019-05-14T14:53:57.703Z,1019.07
2019-05-14T14:55:05.202Z,1019.04
2019-05-14T14:56:05.203Z,1019.07
2019-05-14T14:57:05.190Z,1019.01
2019-05-14T14:58:05.184Z,1019.01
2019-05-14T14:59:05.154Z,1019.00
2019-05-14T15:14:34.426Z,1018.94
2019-05-14T15:15:34.386Z,1018.94
2019-05-14T15:16:34.367Z,1018.90
2019-05-14T15:17:34.368Z,1018.91
2019-05-14T15:18:34.368Z,1018.92
2019-05-14T15:19:34.442Z,1018.86
2019-05-14T15:20:34.343Z,1018.83
2019-05-14T15:21:34.305Z,1018.81
2019-05-14T15:22:34.297Z,1018.85
2019-05-14T15:23:34.298Z,1018.83
2019-05-14T15:24:34.292Z,1018.80
2019-05-14T15:25:34.260Z,1018.76
2019-05-14T15:26:34.255Z,1018.75
2019-05-14T15:27:34.274Z,1018.78
2019-05-14T15:28:34.248Z,1018.74
2019-05-14T15:29:34.221Z,1018.72
2019-05-14T15:30:34.239Z,1018.69
2019-05-14T15:31:34.196Z,1018.72
2019-05-14T15:32:34.182Z,1018.70
2019-05-14T15:33:34.185Z,1018.70
2019-05-14T15:34:34.178Z,1018.69
2019-05-14T15:35:34.152Z,1018.67
2019-05-14T15:36:34.240Z,1018.70
2019-05-14T15:37:34.160Z,1018.71
2019-05-14T15:38:34.123Z,1018.66
2019-05-14T15:39:34.110Z,1018.64
2019-05-14T15:40:34.111Z,1018.56
2019-05-14T15:41:34.084Z,1018.51
2019-05-14T15:42:34.078Z,1018.56
2019-05-14T15:43:34.066Z,1018.55
2019-05-14T15:44:47.310Z,1018.57
2019-05-14T15:45:55.964Z,1018.55
2019-05-14T15:46:58.599Z,1018.61
2019-05-14T15:48:02.688Z,1018.58
2019-05-14T15:49:19.156Z,1018.58
2019-05-14T15:50:19.940Z,1018.57
2019-05-14T15:51:19.484Z,1018.56
2019-05-14T15:52:19.239Z,1018.56
2019-05-14T15:53:19.508Z,1018.51
2019-05-14T15:54:36.038Z,1018.50
2019-05-14T15:55:39.410Z,1018.49
2019-05-14T15:56:39.604Z,1018.51
2019-05-14T15:57:40.012Z,1018.44
2019-05-14T15:58:39.390Z,1018.49
2019-05-14T15:59:39.376Z,1018.41
2019-05-14T16:00:39.362Z,1018.48
2019-05-14T16:01:39.928Z,1018.51
2019-05-14T16:02:39.974Z,1018.48
2019-05-14T16:03:41.579Z,1018.50
2019-05-14T16:04:39.307Z,1018.49
2019-05-14T16:05:39.657Z,1018.51
2019-05-14T16:06:39.296Z,1018.50
2019-05-14T16:07:39.536Z,1018.48
2019-05-14T16:08:40.165Z,1018.44
2019-05-14T16:09:39.901Z,1018.44
2019-05-14T16:10:39.939Z,1018.37
2019-05-14T16:11:39.448Z,1018.40
2019-05-14T16:12:40.154Z,1018.42
2019-05-14T16:13:39.797Z,1018.42
2019-05-14T16:14:39.209Z,1018.38
2019-05-14T16:15:39.184Z,1018.35
2019-05-14T16:16:39.387Z,1018.29
2019-05-14T16:17:48.235Z,1018.22
2019-05-14T16:19:01.325Z,1018.28
2019-05-14T16:20:01.321Z,1018.26
2019-05-14T16:21:01.302Z,1018.28
2019-05-14T16:22:01.287Z,1018.25
2019-05-14T16:23:01.302Z,1018.27
2019-05-14T16:24:01.269Z,1018.23
2019-05-14T16:25:01.290Z,1018.22
2019-05-14T16:26:01.247Z,1018.24
2019-05-14T16:27:01.244Z,1018.21
2019-05-14T16:28:01.230Z,1018.18
2019-05-14T16:29:01.213Z,1018.18
2019-05-14T16:30:01.312Z,1018.18
2019-05-14T16:31:01.203Z,1018.19
2019-05-14T16:32:01.179Z,1018.20
2019-05-14T16:33:01.188Z,1018.18
2019-05-14T16:34:01.156Z,1018.18
2019-05-14T16:35:01.142Z,1018.22
2019-05-14T16:36:01.140Z,1018.27
2019-05-14T16:37:01.119Z,1018.27
2019-05-14T16:38:01.135Z,1018.22
2019-05-14T16:39:01.112Z,1018.18
2019-05-14T16:40:01.088Z,1018.23
2019-05-14T16:41:01.118Z,1018.30
2019-05-14T16:42:01.081Z,1018.28
2019-05-14T16:43:01.057Z,1018.27
2019-05-14T16:44:01.050Z,1018.33
2019-05-14T16:45:01.096Z,1018.30
2019-05-14T16:46:01.021Z,1018.30
2019-05-14T16:47:01.016Z,1018.31
2019-05-14T16:48:01.004Z,1018.31
2019-05-14T16:49:00.999Z,1018.34
2019-05-14T16:50:00.983Z,1018.39
2019-05-14T16:51:00.964Z,1018.35
2019-05-14T16:52:00.973Z,1018.39
2019-05-14T16:54:00.932Z,1018.38
2019-05-14T16:55:15.477Z,1018.40
2019-05-14T16:56:22.616Z,1018.37
2019-05-14T16:57:22.575Z,1018.35
2019-05-14T16:58:22.562Z,1018.37
2019-05-14T16:59:22.573Z,1018.35
2019-05-14T17:00:22.545Z,1018.38
2019-05-14T17:01:22.527Z,1018.35
2019-05-14T17:03:22.514Z,1018.36
2019-05-14T17:04:22.493Z,1018.32
2019-05-14T17:05:22.484Z,1018.37
2019-05-14T17:06:22.477Z,1018.35
2019-05-14T17:08:22.450Z,1018.34
2019-05-14T17:09:22.448Z,1018.35
2019-05-14T17:10:22.448Z,1018.38
2019-05-14T17:11:22.432Z,1018.37
2019-05-14T17:12:22.963Z,1018.36
2019-05-14T17:13:22.401Z,1018.35
2019-05-14T17:14:22.402Z,1018.37
2019-05-14T17:15:22.367Z,1018.37
2019-05-14T17:16:22.356Z,1018.34
2019-05-14T17:17:22.559Z,1018.39
2019-05-14T17:18:22.358Z,1018.34
2019-05-14T17:19:22.332Z,1018.34
2019-05-14T17:21:22.303Z,1018.35
2019-05-14T17:22:29.233Z,1018.36
2019-05-14T17:23:44.357Z,1018.30
2019-05-14T17:24:44.350Z,1018.33
2019-05-14T17:25:44.343Z,1018.33
2019-05-14T17:26:44.314Z,1018.34
2019-05-14T17:27:44.319Z,1018.31
2019-05-14T17:28:44.295Z,1018.32
2019-05-14T17:29:44.286Z,1018.36
2019-05-14T17:30:44.280Z,1018.32
2019-05-14T17:31:44.266Z,1018.35
2019-05-14T17:32:44.258Z,1018.31
2019-05-14T17:33:44.251Z,1018.31
2019-05-14T17:34:44.227Z,1018.30
2019-05-14T17:35:44.221Z,1018.29
2019-05-14T17:36:44.208Z,1018.29
2019-05-14T17:37:44.205Z,1018.33
2019-05-14T17:38:44.198Z,1018.35
2019-05-14T17:39:44.185Z,1018.33
2019-05-14T17:40:44.174Z,1018.39
2019-05-14T17:41:44.157Z,1018.41
2019-05-14T17:42:44.151Z,1018.39
2019-05-14T17:43:44.140Z,1018.40
2019-05-14T17:44:44.114Z,1018.39
2019-05-14T17:45:44.103Z,1018.39
2019-05-14T17:46:44.093Z,1018.38
2019-05-14T17:47:44.095Z,1018.38
2019-05-14T17:48:44.080Z,1018.40
2019-05-14T17:49:44.072Z,1018.44
2019-05-14T17:50:44.822Z,1018.44
2019-05-14T17:51:44.045Z,1018.43
2019-05-14T17:52:45.489Z,1018.47
2019-05-14T17:54:44.007Z,1018.43
2019-05-14T17:55:47.472Z,1018.46
2019-05-14T17:57:05.564Z,1018.46
2019-05-14T17:58:05.571Z,1018.40
2019-05-14T17:59:05.537Z,1018.48
2019-05-14T18:00:05.528Z,1018.50
2019-05-14T18:01:05.512Z,1018.43
2019-05-14T18:02:05.503Z,1018.49
2019-05-14T18:03:05.524Z,1018.42
2019-05-14T18:06:05.459Z,1018.40
2019-05-14T18:07:05.446Z,1018.42
2019-05-14T18:08:05.436Z,1018.47
2019-05-14T18:09:05.446Z,1018.40
2019-05-14T18:10:05.425Z,1018.48
2019-05-14T18:11:05.405Z,1018.42
2019-05-14T18:12:05.388Z,1018.42
2019-05-14T18:13:05.396Z,1018.45
2019-05-14T18:14:05.378Z,1018.42
2019-05-14T18:15:05.369Z,1018.44
2019-05-14T18:16:05.365Z,1018.46
2019-05-14T18:17:05.392Z,1018.44
2019-05-14T18:18:05.341Z,1018.44
2019-05-14T18:19:05.333Z,1018.47
2019-05-14T18:20:05.335Z,1018.45
2019-05-14T18:21:05.299Z,1018.47
2019-05-14T18:23:05.286Z,1018.46
2019-05-14T18:24:05.259Z,1018.44
2019-05-14T18:25:05.256Z,1018.51
2019-05-14T18:27:05.221Z,1018.51
2019-05-14T18:28:05.208Z,1018.43